Time;durP1;ratioP1;P1;durP2;ratioP2;P2;SDS_P1;SDS_P2;PMS_P1;PMS_P2;Temp;Humidity;BMP_temperature;BMP_pressure;BME280_temperature;BME280_humidity;BME280_pressure;Samples;Min_cycle;Max_cycle;Signal;HPM_P1;HPM_P2
2022/09/04 00:01:48;;;;;;;;;;;;;;;-142.75;100.00;76225.81;5047586;28;19923;-69
2022/09/04 00:04:23;;;;;;;;;;;;;;;-142.75;100.00;76231.72;5039911;28;20038;-69
2022/09/04 00:06:59;;;;;;;;;;;;;;;-142.75;100.00;76239.59;5040491;28;19975;-69
2022/09/04 00:09:33;;;;;;;;;;;;;;;-142.75;100.00;76245.50;5040792;28;19913;-69
2022/09/04 00:12:07;;;;;;;;;;;;;;;-142.75;100.00;76251.41;5036724;28;19917;-70
2022/09/04 00:14:50;;;;;;;;;;;;;;;-142.75;100.00;76261.25;5040863;28;19920;-70
2022/09/04 00:17:24;;;;;;;;;;;;;;;-142.75;100.00;76275.03;5043540;28;19934;-69
2022/09/04 00:19:49;;;;;;;;;;;;;;;-142.75;100.00;76294.72;5040743;28;19917;-69
2022/09/04 00:22:28;;;;;;;;;;;;;;;-142.75;100.00;76314.41;5044326;28;19920;-70
2022/09/04 00:25:02;;;;;;;;;;;;;;;-142.75;100.00;76330.16;5041585;28;19921;-69
2022/09/04 00:27:29;;;;;;;;;;;;;;;-142.75;100.00;76343.94;5051383;28;19995;-70
2022/09/04 00:30:05;;;;;;;;;;;;;;;-142.75;100.00;76359.66;5041126;28;19979;-68
2022/09/04 00:32:33;;;;;;;;;;;;;;;-142.75;100.00;76351.81;5042629;28;19913;-69
2022/09/04 00:35:01;;;;;;;;;;;;;;;-142.75;100.00;76365.56;5041131;28;19915;-69
2022/09/04 00:37:42;;;;;;;;;;;;;;;-142.75;100.00;76385.25;5054208;28;20008;-70
2022/09/04 00:40:13;;;;;;;;;;;;;;;-142.75;100.00;76385.25;5054711;28;19917;-70
2022/09/04 00:42:39;;;;;;;;;;;;;;;-142.75;100.00;76389.19;5046797;28;19982;-69
2022/09/04 00:45:19;;;;;;;;;;;;;;;-142.75;100.00;76391.16;5041994;28;19917;-69
2022/09/04 00:48:03;;;;;;;;;;;;;;;-142.75;100.00;76387.22;5043233;28;19919;-70
2022/09/04 00:50:45;;;;;;;;;;;;;;;-142.75;100.00;76404.94;5052532;28;19913;-70
2022/09/04 00:53:13;;;;;;;;;;;;;;;-142.75;100.00;76410.84;5053603;28;19923;-69
2022/09/04 00:55:38;;;;;;;;;;;;;;;-142.75;100.00;76408.88;5049618;28;19921;-69
2022/09/04 00:58:22;;;;;;;;;;;;;;;-142.75;100.00;76404.94;5050036;28;19913;-69
2022/09/04 01:00:48;;;;;;;;;;;;;;;-142.75;100.00;76408.88;5055219;28;19936;-69
2022/09/04 01:03:29;;;;;;;;;;;;;;;-142.75;100.00;76406.91;5053481;28;19947;-71
2022/09/04 01:05:55;;;;;;;;;;;;;;;-142.75;100.00;76401.00;5055248;28;19919;-69
2022/09/04 01:08:26;;;;;;;;;;;;;;;-142.75;100.00;76393.13;5054772;28;19913;-68
2022/09/04 01:11:10;;;;;;;;;;;;;;;-142.75;100.00;76397.06;5054358;28;19924;-68
2022/09/04 01:13:40;;;;;;;;;;;;;;;-142.75;100.00;76402.97;5053029;28;19916;-69
2022/09/04 01:16:12;;;;;;;;;;;;;;;-142.75;100.00;76401.00;5051928;28;19966;-68
2022/09/04 01:18:47;;;;;;;;;;;;;;;-142.75;100.00;76406.91;5051757;28;19963;-69
2022/09/04 01:21:18;;;;;;;;;;;;;;;-142.75;100.00;76401.00;5053016;28;19943;-68
2022/09/04 01:23:52;;;;;;;;;;;;;;;-142.75;100.00;76410.84;5054468;28;19917;-68
2022/09/04 01:26:23;;;;;;;;;;;;;;;-142.75;100.00;76416.75;5070181;28;19919;-68
2022/09/04 01:28:55;;;;;;;;;;;;;;;-142.75;100.00;76412.81;5054470;28;20298;-68
2022/09/04 01:31:23;;;;;;;;;;;;;;;-142.75;100.00;76401.00;5054597;28;19919;-68
2022/09/04 01:34:00;;;;;;;;;;;;;;;-142.75;100.00;76399.03;5054493;28;19917;-68
2022/09/04 01:36:40;;;;;;;;;;;;;;;-142.75;100.00;76387.22;5054399;28;20552;-68
2022/09/04 01:39:06;;;;;;;;;;;;;;;-142.75;100.00;76401.00;5054553;28;19913;-70
2022/09/04 01:41:41;;;;;;;;;;;;;;;-142.75;100.00;76401.00;5054440;28;20309;-68
2022/09/04 01:44:07;;;;;;;;;;;;;;;-142.75;100.00;76399.03;5054272;28;19921;-69
2022/09/04 01:46:35;;;;;;;;;;;;;;;-142.75;100.00;76410.84;5054039;28;19920;-68
2022/09/04 01:49:03;;;;;;;;;;;;;;;-142.75;100.00;76428.56;5069708;28;20322;-68
2022/09/04 01:51:47;;;;;;;;;;;;;;;-142.75;100.00;76444.31;5054270;28;19912;-68
2022/09/04 01:54:27;;;;;;;;;;;;;;;-142.75;100.00;76462.03;5054203;28;20398;-68
2022/09/04 01:57:06;;;;;;;;;;;;;;;-142.75;100.00;76465.97;5053856;28;19960;-68
2022/09/04 01:59:38;;;;;;;;;;;;;;;-142.75;100.00;76448.25;5054021;28;19967;-68
2022/09/04 02:02:13;;;;;;;;;;;;;;;-142.75;100.00;76479.75;5054114;28;20000;-68
2022/09/04 02:04:46;;;;;;;;;;;;;;;-142.75;100.00;76509.28;5053985;28;19927;-68
2022/09/04 02:07:30;;;;;;;;;;;;;;;-142.75;100.00;76521.09;5053757;28;20357;-68
2022/09/04 02:10:17;;;;;;;;;;;;;;;-142.75;100.00;76499.44;5053944;28;19912;-68
2022/09/04 02:12:51;;;;;;;;;;;;;;;-142.75;100.00;76491.56;5053828;28;19912;-68
2022/09/04 02:15:35;;;;;;;;;;;;;;;-142.75;100.00;76505.34;5053852;28;19966;-69
2022/09/04 02:18:18;;;;;;;;;;;;;;;-142.75;100.00;76517.16;5053391;28;19912;-69
2022/09/04 02:20:48;;;;;;;;;;;;;;;-142.75;100.00;76534.84;5053743;28;19974;-68
2022/09/04 02:23:20;;;;;;;;;;;;;;;-142.75;100.00;76521.09;5053493;28;20359;-68
2022/09/04 02:26:02;;;;;;;;;;;;;;;-142.75;100.00;76523.06;5053585;28;19920;-68
2022/09/04 02:28:47;;;;;;;;;;;;;;;-142.75;100.00;76523.06;5053053;28;20509;-68
2022/09/04 02:31:12;;;;;;;;;;;;;;;-142.75;100.00;76554.53;5053504;28;20322;-68
2022/09/04 02:33:42;;;;;;;;;;;;;;;-142.75;100.00;76574.22;5053341;28;19916;-68
2022/09/04 02:36:26;;;;;;;;;;;;;;;-142.75;100.00;76591.94;5051581;28;19920;-68
2022/09/04 02:39:02;;;;;;;;;;;;;;;-142.75;100.00;76589.97;5053064;28;20061;-68
2022/09/04 02:41:30;;;;;;;;;;;;;;;-142.75;100.00;76599.81;5053327;28;20014;-68
2022/09/04 02:44:01;;;;;;;;;;;;;;;-142.75;100.00;76607.69;5053048;28;19940;-68
2022/09/04 02:46:32;;;;;;;;;;;;;;;-142.75;100.00;76625.41;5053043;28;19913;-68
2022/09/04 02:49:30;;;;;;;;;;;;;;;-142.75;100.00;76603.75;5053107;28;19917;-68
2022/09/04 02:52:10;;;;;;;;;;;;;;;-142.75;100.00;76578.16;5040730;28;19912;-68
2022/09/04 02:54:35;;;;;;;;;;;;;;;-142.75;100.00;76566.34;5053050;28;19919;-68
2022/09/04 02:57:11;;;;;;;;;;;;;;;-142.75;100.00;76558.47;5052710;28;20351;-65
2022/09/04 02:59:46;;;;;;;;;;;;;;;-142.75;100.00;76560.44;5053139;28;20340;-69
2022/09/04 03:02:20;;;;;;;;;;;;;;;-142.75;100.00;76572.25;5052781;28;19924;-68
2022/09/04 03:05:05;;;;;;;;;;;;;;;-142.75;100.00;76568.31;5052809;28;19916;-68
2022/09/04 03:07:32;;;;;;;;;;;;;;;-142.75;100.00;76568.31;5052079;28;20054;-68
2022/09/04 03:10:07;;;;;;;;;;;;;;;-142.75;100.00;76574.22;5052781;28;20613;-68
2022/09/04 03:12:53;;;;;;;;;;;;;;;-142.75;100.00;76572.25;5068022;28;19913;-69
2022/09/04 03:15:37;;;;;;;;;;;;;;;-142.75;100.00;76574.22;5052665;28;19919;-68
2022/09/04 03:18:12;;;;;;;;;;;;;;;-142.75;100.00;76599.81;5052308;28;19966;-68
2022/09/04 03:21:05;;;;;;;;;;;;;;;-142.75;100.00;76589.97;5052519;28;19913;-68
2022/09/04 03:23:42;;;;;;;;;;;;;;;-142.75;100.00;76593.91;5051201;28;19917;-68
2022/09/04 03:26:17;;;;;;;;;;;;;;;-142.75;100.00;76582.09;5052499;28;19913;-68
2022/09/04 03:28:45;;;;;;;;;;;;;;;-142.75;100.00;76578.16;5052032;28;19913;-68
2022/09/04 03:31:29;;;;;;;;;;;;;;;-142.75;100.00;76570.28;5052446;28;19917;-69
2022/09/04 03:34:03;;;;;;;;;;;;;;;-142.75;100.00;76562.41;5052301;28;20375;-69
2022/09/04 03:36:38;;;;;;;;;;;;;;;-142.75;100.00;76566.34;5052314;28;19971;-68
2022/09/04 03:39:10;;;;;;;;;;;;;;;-142.75;100.00;76576.19;5052419;28;19920;-68
2022/09/04 03:41:54;;;;;;;;;;;;;;;-142.75;100.00;76582.09;5052300;28;19917;-68
2022/09/04 03:44:22;;;;;;;;;;;;;;;-142.75;100.00;76580.13;5052170;28;19917;-68
2022/09/04 03:46:56;;;;;;;;;;;;;;;-142.75;100.00;76582.09;5051083;28;19923;-68
2022/09/04 03:49:37;;;;;;;;;;;;;;;-142.75;100.00;76584.06;5052195;28;19913;-68
2022/09/04 03:52:02;;;;;;;;;;;;;;;-142.75;100.00;76586.03;5052290;28;19917;-68
2022/09/04 03:54:55;;;;;;;;;;;;;;;-142.75;100.00;76584.06;5052194;28;20343;-68
2022/09/04 03:57:23;;;;;;;;;;;;;;;-142.75;100.00;76603.75;5043232;28;20413;-68
2022/09/04 04:00:10;;;;;;;;;;;;;;;-142.75;100.00;76597.84;5052178;28;19917;-68
2022/09/04 04:02:51;;;;;;;;;;;;;;;-142.75;100.00;76586.03;5077448;22;20397;-68
2022/09/04 04:05:16;;;;;;;;;;;;;;;-142.75;100.00;76593.91;5010748;28;20008;-67
2022/09/04 04:08:01;;;;;;;;;;;;;;;-142.75;100.00;76586.03;5011948;28;20000;-68
2022/09/04 04:10:32;;;;;;;;;;;;;;;-142.75;100.00;76597.84;5013539;28;19913;-67
2022/09/04 04:12:57;;;;;;;;;;;;;;;-142.75;100.00;76589.97;5013584;28;19917;-67
2022/09/04 04:15:31;;;;;;;;;;;;;;;-142.75;100.00;76588.00;5013605;28;20048;-67
2022/09/04 04:18:12;;;;;;;;;;;;;;;-142.75;100.00;76597.84;5013216;28;19913;-67
2022/09/04 04:20:43;;;;;;;;;;;;;;;-142.75;100.00;76601.78;5013600;28;19919;-68
2022/09/04 04:23:23;;;;;;;;;;;;;;;-142.75;100.00;76593.91;5012306;28;20292;-67
2022/09/04 04:25:54;;;;;;;;;;;;;;;-142.75;100.00;76603.75;5012886;28;19968;-67
2022/09/04 04:28:22;;;;;;;;;;;;;;;-142.75;100.00;76593.91;5012996;28;19913;-67
2022/09/04 04:30:51;;;;;;;;;;;;;;;-142.75;100.00;76597.84;5013390;28;19936;-68
2022/09/04 04:33:16;;;;;;;;;;;;;;;-142.75;100.00;76588.00;5012972;28;19921;-68
2022/09/04 04:35:48;;;;;;;;;;;;;;;-142.75;100.00;76593.91;5013126;28;20311;-68
2022/09/04 04:38:19;;;;;;;;;;;;;;;-142.75;100.00;76597.84;5012910;28;19917;-67
2022/09/04 04:41:03;;;;;;;;;;;;;;;-142.75;100.00;76586.03;5013158;28;20320;-67
2022/09/04 04:43:28;;;;;;;;;;;;;;;-142.75;100.00;76572.25;5013239;28;19932;-68
2022/09/04 04:45:57;;;;;;;;;;;;;;;-142.75;100.00;76593.91;5013481;28;20272;-67
2022/09/04 04:48:26;;;;;;;;;;;;;;;-142.75;100.00;76580.13;5013149;28;19918;-67
2022/09/04 04:51:02;;;;;;;;;;;;;;;-142.75;100.00;76574.22;5028498;28;19936;-67
2022/09/04 04:53:31;;;;;;;;;;;;;;;-142.75;100.00;76597.84;5013139;28;20309;-67
2022/09/04 04:55:56;;;;;;;;;;;;;;;-142.75;100.00;76633.28;5013569;28;20334;-68
2022/09/04 04:58:40;;;;;;;;;;;;;;;-142.75;100.00;76639.19;5013866;28;19960;-67
2022/09/04 05:01:15;;;;;;;;;;;;;;;-142.75;100.00;76652.97;5016718;28;19920;-67
2022/09/04 05:03:59;;;;;;;;;;;;;;;-142.75;100.00;76629.34;5016230;28;19957;-67
2022/09/04 05:06:34;;;;;;;;;;;;;;;-142.75;100.00;76621.47;5016647;28;19968;-67
2022/09/04 05:09:21;;;;;;;;;;;;;;;-142.75;100.00;76631.31;5016778;28;19917;-67
2022/09/04 05:11:53;;;;;;;;;;;;;;;-142.75;100.00;76635.25;5016879;28;20379;-67
2022/09/04 05:14:18;;;;;;;;;;;;;;;-142.75;100.00;76633.28;5016587;28;20362;-68
2022/09/04 05:16:54;;;;;;;;;;;;;;;-142.75;100.00;76631.31;5016216;28;19948;-68
2022/09/04 05:19:41;;;;;;;;;;;;;;;-142.75;100.00;76643.13;5016560;28;20016;-68
2022/09/04 05:22:18;;;;;;;;;;;;;;;-142.75;100.00;76651.00;5031675;28;19921;-67
2022/09/04 05:24:48;;;;;;;;;;;;;;;-142.75;100.00;76662.81;5016002;28;20453;-67
2022/09/04 05:27:26;;;;;;;;;;;;;;;-142.75;100.00;76664.78;5016214;28;19921;-67
2022/09/04 05:29:57;;;;;;;;;;;;;;;-142.75;100.00;76664.78;5016332;28;20391;-67
2022/09/04 05:32:27;;;;;;;;;;;;;;;-142.75;100.00;76662.81;5015882;28;20000;-68
2022/09/04 05:35:11;;;;;;;;;;;;;;;-142.75;100.00;76664.78;5016178;28;19924;-67
2022/09/04 05:37:55;;;;;;;;;;;;;;;-142.75;100.00;76660.84;5015878;28;19914;-67
2022/09/04 05:40:38;;;;;;;;;;;;;;;-142.75;100.00;76652.97;5016104;28;19921;-67
2022/09/04 05:43:09;;;;;;;;;;;;;;;-142.75;100.00;76637.22;5015689;28;19917;-67
2022/09/04 05:45:40;;;;;;;;;;;;;;;-142.75;100.00;76631.31;5016066;28;20275;-67
2022/09/04 05:48:14;;;;;;;;;;;;;;;-142.75;100.00;76645.09;5016111;28;19944;-68
2022/09/04 05:50:56;;;;;;;;;;;;;;;-142.75;100.00;76639.19;5031617;28;19913;-68
2022/09/04 05:53:31;;;;;;;;;;;;;;;-142.75;100.00;76637.22;5015848;28;19920;-67
2022/09/04 05:56:11;;;;;;;;;;;;;;;-142.75;100.00;76613.59;5014623;28;19913;-67
2022/09/04 05:58:54;;;;;;;;;;;;;;;-142.75;100.00;76591.94;5015289;28;19944;-67
2022/09/04 06:01:22;;;;;;;;;;;;;;;-142.75;100.00;76580.13;5015726;28;19919;-67
2022/09/04 06:03:56;;;;;;;;;;;;;;;-142.75;100.00;76560.44;5015638;28;19989;-67
2022/09/04 06:06:35;;;;;;;;;;;;;;;-142.75;100.00;76546.66;5015876;28;19913;-67
2022/09/04 06:09:19;;;;;;;;;;;;;;;-142.75;100.00;76527.00;5014297;28;20387;-68
2022/09/04 06:12:03;;;;;;;;;;;;;;;-142.75;100.00;76515.19;5015245;28;20387;-67
2022/09/04 06:14:28;;;;;;;;;;;;;;;-142.75;100.00;76521.09;5015880;28;19913;-67
2022/09/04 06:17:09;;;;;;;;;;;;;;;-142.75;100.00;76489.59;5015640;28;20223;-67
2022/09/04 06:19:43;;;;;;;;;;;;;;;-142.75;100.00;76475.81;5015468;28;19913;-67
2022/09/04 06:22:14;;;;;;;;;;;;;;;-142.75;100.00;76465.97;5030837;28;19913;-67
2022/09/04 06:24:54;;;;;;;;;;;;;;;-142.75;100.00;76471.88;5015507;28;19980;-67
2022/09/04 06:27:22;;;;;;;;;;;;;;;-142.75;100.00;76487.63;5014825;28;19960;-67
2022/09/04 06:29:47;;;;;;;;;;;;;;;-142.75;100.00;76485.66;5015047;28;19917;-67
2022/09/04 06:32:25;;;;;;;;;;;;;;;-142.75;100.00;76491.56;5015291;28;19971;-67
2022/09/04 06:34:59;;;;;;;;;;;;;;;-142.75;100.00;76477.78;5014859;28;19963;-67
2022/09/04 06:37:24;;;;;;;;;;;;;;;-142.75;100.00;76467.94;5014580;28;19920;-67
2022/09/04 06:40:16;;;;;;;;;;;;;;;-142.75;100.00;76452.19;5015160;28;19917;-67
2022/09/04 06:42:41;;;;;;;;;;;;;;;-142.75;100.00;76408.88;4999695;28;20366;-67
2022/09/04 06:45:08;;;;;;;;;;;;;;;-142.75;100.00;76387.22;5014705;28;19924;-67
2022/09/04 06:47:44;;;;;;;;;;;;;;;-142.75;100.00;76361.63;5014399;28;19924;-67
2022/09/04 06:50:21;;;;;;;;;;;;;;;-142.75;100.00;76330.16;5014839;28;20419;-67
2022/09/04 06:52:59;;;;;;;;;;;;;;;-142.75;100.00;76316.38;5014273;28;19936;-68
2022/09/04 06:55:32;;;;;;;;;;;;;;;-142.75;100.00;76282.91;5014928;28;19914;-67
2022/09/04 06:58:07;;;;;;;;;;;;;;;-142.75;100.00;76243.53;5014200;28;20430;-67
2022/09/04 07:00:39;;;;;;;;;;;;;;;-142.75;100.00;76217.94;5014705;28;19925;-67
2022/09/04 07:03:10;;;;;;;;;;;;;;;-142.75;100.00;76176.63;5014069;28;19924;-67
2022/09/04 07:05:42;;;;;;;;;;;;;;;-142.75;100.00;76154.97;5013048;28;19956;-67
2022/09/04 07:08:15;;;;;;;;;;;;;;;-142.75;100.00;76129.38;5013750;28;19920;-67
2022/09/04 07:10:57;;;;;;;;;;;;;;;-142.75;100.00;76109.69;5029235;28;19914;-67
2022/09/04 07:13:32;;;;;;;;;;;;;;;-142.75;100.00;76080.16;5013690;28;20391;-67
2022/09/04 07:16:12;;;;;;;;;;;;;;;-142.75;100.00;76062.47;5014060;28;19913;-67
2022/09/04 07:18:54;;;;;;;;;;;;;;;-142.75;100.00;76048.69;5013631;28;20008;-67
2022/09/04 07:21:44;;;;;;;;;;;;;;;-142.75;100.00;76023.09;5013774;28;19974;-67
2022/09/04 07:24:28;;;;;;;;;;;;;;;-142.75;100.00;75991.59;5013821;28;20556;-67
2022/09/04 07:27:00;;;;;;;;;;;;;;;-142.75;100.00;75981.75;5013771;28;20330;-67
2022/09/04 07:29:38;;;;;;;;;;;;;;;-142.75;100.00;75979.78;5013975;28;19921;-67
2022/09/04 07:32:08;;;;;;;;;;;;;;;-142.75;100.00;75966.00;5013896;28;19917;-67
2022/09/04 07:34:49;;;;;;;;;;;;;;;-142.75;100.00;75956.19;5013771;28;19924;-67
2022/09/04 07:37:22;;;;;;;;;;;;;;;-142.75;100.00;75920.75;5013522;28;20350;-67
2022/09/04 07:39:59;;;;;;;;;;;;;;;-142.75;100.00;75887.28;5028993;28;20307;-68
2022/09/04 07:42:28;;;;;;;;;;;;;;;-142.75;100.00;75861.69;5013415;28;19914;-67
2022/09/04 07:44:59;;;;;;;;;;;;;;;-142.75;100.00;75814.47;5013508;28;19921;-67
2022/09/04 07:47:29;;;;;;;;;;;;;;;-142.75;100.00;75802.66;5013322;28;19921;-67
2022/09/04 07:49:54;;;;;;;;;;;;;;;-142.75;100.00;75779.03;5012129;28;19913;-68
2022/09/04 07:52:34;;;;;;;;;;;;;;;-142.75;100.00;75773.13;5013164;28;20295;-67
2022/09/04 07:55:09;;;;;;;;;;;;;;;-142.75;100.00;75765.25;5013646;28;19918;-67
2022/09/04 07:57:46;;;;;;;;;;;;;;;-142.75;100.00;75729.84;5013016;28;19913;-67
2022/09/04 08:00:16;;;;;;;;;;;;;;;-142.75;100.00;75729.84;5013293;28;19968;-67
2022/09/04 08:03:00;;;;;;;;;;;;;;;-142.75;100.00;75704.25;5013295;28;19948;-67
2022/09/04 08:05:29;;;;;;;;;;;;;;;-142.75;100.00;75757.41;5013362;28;19918;-67
2022/09/04 08:08:04;;;;;;;;;;;;;;;-142.75;100.00;75708.19;5012982;28;19967;-67
2022/09/04 08:10:47;;;;;;;;;;;;;;;-142.75;100.00;75688.50;5013106;28;19913;-67
2022/09/04 08:13:33;;;;;;;;;;;;;;;-142.75;100.00;75657.03;5013581;28;20008;-67
2022/09/04 08:16:17;;;;;;;;;;;;;;;-142.75;100.00;75629.47;5013357;28;20028;-67
2022/09/04 08:18:51;;;;;;;;;;;;;;;-142.75;100.00;75605.84;5012866;28;20012;-67
2022/09/04 08:21:24;;;;;;;;;;;;;;;-142.75;100.00;75597.97;5013579;28;20284;-67
2022/09/04 08:23:49;;;;;;;;;;;;;;;-142.75;100.00;75588.16;5013165;28;19921;-67
2022/09/04 08:26:17;;;;;;;;;;;;;;;-142.75;100.00;75570.44;5013007;28;19914;-67
2022/09/04 08:28:54;;;;;;;;;;;;;;;-142.75;100.00;75546.81;5012983;28;20441;-67
2022/09/04 08:31:28;;;;;;;;;;;;;;;-142.75;100.00;75538.94;5028522;28;19917;-67
2022/09/04 08:33:53;;;;;;;;;;;;;;;-142.75;100.00;75574.38;5015289;28;19961;-67
2022/09/04 08:36:26;;;;;;;;;;;;;;;-142.75;100.00;75562.56;5016790;28;19913;-67
2022/09/04 08:39:02;;;;;;;;;;;;;;;-142.75;100.00;75560.59;5016685;28;20283;-67
2022/09/04 08:41:30;;;;;;;;;;;;;;;-142.75;100.00;75576.34;5016423;28;20023;-67
2022/09/04 08:44:03;;;;;;;;;;;;;;;-142.75;100.00;75546.81;5016173;28;19924;-66
2022/09/04 08:46:38;;;;;;;;;;;;;;;-142.75;100.00;75529.09;5016212;28;19988;-67
2022/09/04 08:49:19;;;;;;;;;;;;;;;-142.75;100.00;75531.06;5016559;28;19941;-67
2022/09/04 08:51:59;;;;;;;;;;;;;;;-142.75;100.00;75521.22;5016513;28;20474;-67
2022/09/04 08:54:26;;;;;;;;;;;;;;;-142.75;100.00;75491.72;5016253;28;20375;-66
2022/09/04 08:57:15;;;;;;;;;;;;;;;-142.75;100.00;75527.13;5016469;28;19945;-67
2022/09/04 08:59:56;;;;;;;;;;;;;;;-142.75;100.00;75464.16;5016328;28;19968;-67
2022/09/04 09:02:21;;;;;;;;;;;;;;;-142.75;100.00;75466.13;5016756;28;19921;-67
2022/09/04 09:05:05;;;;;;;;;;;;;;;-142.75;100.00;75479.91;5015773;28;20287;-66
2022/09/04 09:07:49;;;;;;;;;;;;;;;-142.75;100.00;75440.53;5015960;28;20000;-66
2022/09/04 09:10:20;;;;;;;;;;;;;;;-142.75;100.00;75462.19;5015744;28;20298;-66
2022/09/04 09:12:48;;;;;;;;;;;;;;;-142.75;100.00;75440.53;5013414;28;19921;-67
2022/09/04 09:15:22;;;;;;;;;;;;;;;-142.75;100.00;75413.00;5015761;28;19918;-67
2022/09/04 09:17:47;;;;;;;;;;;;;;;-142.75;100.00;75428.75;5013232;28;19936;-67
2022/09/04 09:20:25;;;;;;;;;;;;;;;-142.75;100.00;75407.09;5015423;28;20415;-67
2022/09/04 09:23:09;;;;;;;;;;;;;;;-142.75;100.00;75409.06;5028867;28;19914;-67
2022/09/04 09:25:45;;;;;;;;;;;;;;;-142.75;100.00;75409.06;5014266;28;19917;-67
2022/09/04 09:28:13;;;;;;;;;;;;;;;-142.75;100.00;75381.50;5015343;28;19914;-66
2022/09/04 09:31:05;;;;;;;;;;;;;;;-142.75;100.00;75383.47;5015498;28;19922;-66
2022/09/04 09:33:39;;;;;;;;;;;;;;;-142.75;100.00;75413.00;4996063;28;19996;-67
2022/09/04 09:36:14;;;;;;;;;;;;;;;-142.75;100.00;75391.34;5012478;28;19920;-66
2022/09/04 09:38:42;;;;;;;;;;;;;;;-142.75;100.00;75381.50;5014491;28;19975;-66
2022/09/04 09:41:11;;;;;;;;;;;;;;;-142.75;100.00;75353.97;5015163;28;20359;-68
2022/09/04 09:43:55;;;;;;;;;;;;;;;-142.75;100.00;75357.91;5014486;28;20008;-68
2022/09/04 09:46:39;;;;;;;;;;;;;;;-142.75;100.00;75361.84;5013854;28;19920;-68
2022/09/04 09:49:19;;;;;;;;;;;;;;;-142.75;100.00;75314.59;5014886;28;20300;-68
2022/09/04 09:51:54;;;;;;;;;;;;;;;-142.75;100.00;75375.59;5015168;28;19945;-68
2022/09/04 09:54:37;;;;;;;;;;;;;;;-142.75;100.00;75314.59;5013991;28;19925;-68
2022/09/04 09:57:11;;;;;;;;;;;;;;;-142.75;100.00;75318.53;5013446;28;20383;-68
2022/09/04 09:59:43;;;;;;;;;;;;;;;-142.75;100.00;75279.19;5012608;28;19914;-68
2022/09/04 10:02:15;;;;;;;;;;;;;;;-142.75;100.00;75273.28;5013921;28;20307;-68
2022/09/04 10:04:58;;;;;;;;;;;;;;;-142.75;100.00;75204.41;5044561;22;19925;-69
2022/09/04 10:07:23;;;;;;;;;;;;;;;-142.75;100.00;75200.47;5031962;28;19921;-69
2022/09/04 10:10:07;;;;;;;;;;;;;;;-142.75;100.00;75206.38;5033853;28;20013;-68
2022/09/04 10:12:42;;;;;;;;;;;;;;;-142.75;100.00;75188.66;5034238;28;20413;-69
2022/09/04 10:15:34;;;;;;;;;;;;;;;-142.75;98.83;75204.41;5034244;28;19917;-68
2022/09/04 10:17:59;;;;;;;;;;;;;;;-142.75;100.00;75228.00;5031554;28;19913;-69
2022/09/04 10:20:27;;;;;;;;;;;;;;;-142.75;100.00;75206.38;5032530;28;20018;-69
2022/09/04 10:23:08;;;;;;;;;;;;;;;-142.75;100.00;75165.03;5033771;28;19975;-70
2022/09/04 10:25:53;;;;;;;;;;;;;;;-142.75;100.00;75253.59;5033635;28;19917;-69
2022/09/04 10:28:24;;;;;;;;;;;;;;;-142.75;100.00;75204.41;5032373;28;19917;-70
2022/09/04 10:30:59;;;;;;;;;;;;;;;-142.75;100.00;75192.59;5033615;28;19936;-69
2022/09/04 10:33:33;;;;;;;;;;;;;;;-142.75;99.65;75155.22;5032241;28;19912;-69
2022/09/04 10:36:08;;;;;;;;;;;;;;;-142.75;95.45;75178.81;5033512;28;20302;-69
2022/09/04 10:40:34;;;;;;;;;;;;;;;-142.75;90.20;75117.81;5031813;28;19971;-70
2022/09/04 10:41:26;;;;;;;;;;;;;;;-142.75;92.26;75255.56;5031864;28;20405;-70
2022/09/04 10:44:00;;;;;;;;;;;;;;;-142.75;90.74;75167.00;5033123;28;19921;-70
2022/09/04 10:46:26;;;;;;;;;;;;;;;-142.75;91.49;75155.22;5033230;28;20006;-69
2022/09/04 10:48:54;;;;;;;;;;;;;;;-142.75;92.82;75184.72;5033000;28;20406;-70
2022/09/04 10:51:37;;;;;;;;;;;;;;;-142.75;95.40;75251.63;5033251;28;20051;-70
2022/09/04 10:54:08;;;;;;;;;;;;;;;-142.75;92.78;75233.91;5033055;28;19922;-70
2022/09/04 10:56:42;;;;;;;;;;;;;;;-142.75;96.23;75220.16;5031814;28;19921;-69
2022/09/04 10:59:20;;;;;;;;;;;;;;;-142.75;92.35;75194.56;5047443;28;20008;-69
2022/09/04 11:01:46;;;;;;;;;;;;;;;-142.75;96.52;75184.72;5032188;28;19939;-69
2022/09/04 11:04:29;;;;;;;;;;;;;;;-142.75;93.43;75196.53;5031853;28;19929;-70
2022/09/04 11:06:56;;;;;;;;;;;;;;;-142.75;90.94;75172.91;5030385;28;19929;-69
2022/09/04 11:09:21;;;;;;;;;;;;;;;-142.75;92.95;75206.38;5032090;28;19995;-70
2022/09/04 11:11:57;;;;;;;;;;;;;;;-142.75;88.79;75222.13;5032144;28;20012;-70
2022/09/04 11:14:34;;;;;;;;;;;;;;;-142.75;92.47;75275.25;5032062;28;19941;-70
2022/09/04 11:17:10;;;;;;;;;;;;;;;-142.75;95.47;75291.00;5031760;28;19916;-70
2022/09/04 11:19:42;;;;;;;;;;;;;;;-142.75;93.29;75287.06;5047598;28;19963;-70
2022/09/04 11:22:26;;;;;;;;;;;;;;;-142.75;100.00;75393.31;5032228;28;19913;-70
2022/09/04 11:25:04;;;;;;;;;;;;;;;-142.75;100.00;75359.88;5031292;28;20016;-70
2022/09/04 11:27:48;;;;;;;;;;;;;;;-142.75;100.00;75363.78;5023628;28;19923;-70
2022/09/04 11:30:30;;;;;;;;;;;;;;;-142.75;100.00;75330.34;5030857;28;19920;-69
2022/09/04 11:33:02;;;;;;;;;;;;;;;-142.75;100.00;75338.22;5031918;28;20004;-68
2022/09/04 11:35:47;;;;;;;;;;;;;;;-142.75;100.00;75373.63;5032165;28;19913;-70
2022/09/04 11:38:13;;;;;;;;;;;;;;;-142.75;99.83;75403.16;5032139;28;19913;-70
2022/09/04 11:40:57;;;;;;;;;;;;;;;-142.75;95.61;75452.34;5046471;28;19943;-69
2022/09/04 11:43:40;;;;;;;;;;;;;;;-142.75;98.42;75385.44;5031471;28;19913;-69
2022/09/04 11:46:08;;;;;;;;;;;;;;;-142.75;96.09;75363.78;5044712;28;19917;-69
2022/09/04 11:48:52;;;;;;;;;;;;;;;-142.75;94.38;75350.03;5032090;28;19913;-69
2022/09/04 11:51:33;;;;;;;;;;;;;;;-142.75;94.70;75426.78;5032217;28;20161;-70
2022/09/04 11:53:59;;;;;;;;;;;;;;;-142.75;100.00;75483.84;5030573;28;19998;-70
2022/09/04 11:56:42;;;;;;;;;;;;;;;-142.75;100.00;75485.81;5032219;28;19968;-68
2022/09/04 11:59:22;;;;;;;;;;;;;;;-142.75;100.00;75523.19;5032225;28;20387;-68
2022/09/04 12:02:06;;;;;;;;;;;;;;;-142.75;100.00;75513.38;5032068;28;20012;-69
2022/09/04 12:04:47;;;;;;;;;;;;;;;-142.75;100.00;75495.66;5030546;28;19922;-67
2022/09/04 12:07:18;;;;;;;;;;;;;;;-142.75;98.63;75432.69;5031739;28;19940;-66
2022/09/04 12:09:46;;;;;;;;;;;;;;;-142.75;91.98;75413.00;5035671;28;19986;-69
2022/09/04 12:12:34;;;;;;;;;;;;;;;-142.75;92.95;75381.50;5051743;28;19917;-68
2022/09/04 12:15:11;;;;;;;;;;;;;;;-142.75;90.26;75405.13;5036987;28;19913;-69
2022/09/04 12:17:55;;;;;;;;;;;;;;;-142.75;89.82;75424.81;5036829;28;19913;-69
2022/09/04 12:20:33;;;;;;;;;;;;;;;-142.75;88.66;75381.50;5036982;28;19917;-69
2022/09/04 12:23:01;;;;;;;;;;;;;;;-142.75;90.06;75369.69;5036720;28;19913;-67
2022/09/04 12:25:29;;;;;;;;;;;;;;;-142.75;85.66;75328.38;5036603;28;19918;-67
2022/09/04 12:28:14;;;;;;;;;;;;;;;-142.75;82.40;75314.59;5051747;28;19913;-68
2022/09/04 12:30:58;;;;;;;;;;;;;;;-142.75;75.51;75320.50;5036451;28;19913;-68
2022/09/04 12:33:42;;;;;;;;;;;;;;;-142.75;76.88;75300.81;5035243;28;19956;-68
2022/09/04 12:36:09;;;;;;;;;;;;;;;-142.75;75.56;75291.00;5036851;28;19913;-68
2022/09/04 12:38:49;;;;;;;;;;;;;;;-142.75;69.77;75285.09;5036523;28;19959;-68
2022/09/04 12:41:15;;;;;;;;;;;;;;;-142.75;67.41;75255.56;5036722;28;19952;-68
2022/09/04 12:44:00;;;;;;;;;;;;;;;-142.75;68.09;75231.94;5036349;28;20022;-68
2022/09/04 12:46:34;;;;;;;;;;;;;;;-142.75;74.35;75283.13;5051411;28;19917;-67
2022/09/04 12:49:02;;;;;;;;;;;;;;;-142.75;72.87;75291.00;5051583;28;19913;-68
2022/09/04 12:51:42;;;;;;;;;;;;;;;-142.75;74.64;75336.25;5036399;28;20342;-68
2022/09/04 12:54:10;;;;;;;;;;;;;;;-142.75;73.55;75330.34;5034962;28;20086;-68
2022/09/04 12:56:54;;;;;;;;;;;;;;;-142.75;74.97;75312.63;5034647;28;19919;-68
2022/09/04 12:59:22;;;;;;;;;;;;;;;-142.75;72.85;75324.44;5035038;28;20374;-69